sensor_id;sensor_type;location;lat;lon;timestamp;temperature;humidity
51855;DHT22;37895;53.240;6.572;2023-07-09T00:02:21;24.50;94.40
51855;DHT22;37895;53.240;6.572;2023-07-09T00:04:48;24.50;94.40
51855;DHT22;37895;53.240;6.572;2023-07-09T00:07:30;24.50;94.50
51855;DHT22;37895;53.240;6.572;2023-07-09T00:09:56;24.50;94.50
51855;DHT22;37895;53.240;6.572;2023-07-09T00:12:23;24.50;94.50
51855;DHT22;37895;53.240;6.572;2023-07-09T00:14:48;24.50;94.50
51855;DHT22;37895;53.240;6.572;2023-07-09T00:19:46;24.40;94.80
51855;DHT22;37895;53.240;6.572;2023-07-09T00:22:15;24.30;94.60
51855;DHT22;37895;53.240;6.572;2023-07-09T00:24:45;24.30;94.80
51855;DHT22;37895;53.240;6.572;2023-07-09T00:27:13;24.20;94.80
51855;DHT22;37895;53.240;6.572;2023-07-09T00:29:41;24.10;95.00
51855;DHT22;37895;53.240;6.572;2023-07-09T00:32:14;24.30;99.10
51855;DHT22;37895;53.240;6.572;2023-07-09T00:34:42;24.10;95.20
51855;DHT22;37895;53.240;6.572;2023-07-09T00:37:11;24.10;95.10
51855;DHT22;37895;53.240;6.572;2023-07-09T00:39:38;24.10;95.20
51855;DHT22;37895;53.240;6.572;2023-07-09T00:42:07;24.00;95.30
51855;DHT22;37895;53.240;6.572;2023-07-09T00:44:36;24.00;95.40
51855;DHT22;37895;53.240;6.572;2023-07-09T00:49:36;23.90;95.50
51855;DHT22;37895;53.240;6.572;2023-07-09T00:52:27;23.70;95.60
51855;DHT22;37895;53.240;6.572;2023-07-09T00:57:24;23.60;95.60
51855;DHT22;37895;53.240;6.572;2023-07-09T00:59:57;23.60;96.00
51855;DHT22;37895;53.240;6.572;2023-07-09T01:02:23;23.60;96.00
51855;DHT22;37895;53.240;6.572;2023-07-09T01:04:56;23.60;96.00
51855;DHT22;37895;53.240;6.572;2023-07-09T01:07:27;23.60;96.00
51855;DHT22;37895;53.240;6.572;2023-07-09T01:09:53;23.60;96.00
51855;DHT22;37895;53.240;6.572;2023-07-09T01:12:18;23.50;96.00
51855;DHT22;37895;53.240;6.572;2023-07-09T01:14:46;23.50;96.20
51855;DHT22;37895;53.240;6.572;2023-07-09T01:17:14;23.40;96.00
51855;DHT22;37895;53.240;6.572;2023-07-09T01:19:42;23.40;96.40
51855;DHT22;37895;53.240;6.572;2023-07-09T01:22:11;23.40;96.30
51855;DHT22;37895;53.240;6.572;2023-07-09T01:27:24;23.20;96.50
51855;DHT22;37895;53.240;6.572;2023-07-09T01:29:52;23.20;96.60
51855;DHT22;37895;53.240;6.572;2023-07-09T01:32:19;23.10;96.60
51855;DHT22;37895;53.240;6.572;2023-07-09T01:34:51;23.10;96.60
51855;DHT22;37895;53.240;6.572;2023-07-09T01:37:25;23.20;96.60
51855;DHT22;37895;53.240;6.572;2023-07-09T01:39:51;23.20;96.50
51855;DHT22;37895;53.240;6.572;2023-07-09T01:42:18;23.20;96.50
51855;DHT22;37895;53.240;6.572;2023-07-09T01:44:47;23.20;96.50
51855;DHT22;37895;53.240;6.572;2023-07-09T01:47:13;23.10;96.50
51855;DHT22;37895;53.240;6.572;2023-07-09T01:49:38;23.10;96.60
51855;DHT22;37895;53.240;6.572;2023-07-09T01:52:06;23.20;96.70
51855;DHT22;37895;53.240;6.572;2023-07-09T01:54:34;23.10;96.60
51855;DHT22;37895;53.240;6.572;2023-07-09T01:57:15;23.10;96.60
51855;DHT22;37895;53.240;6.572;2023-07-09T01:59:44;23.10;96.80
51855;DHT22;37895;53.240;6.572;2023-07-09T02:02:10;23.10;96.80
51855;DHT22;37895;53.240;6.572;2023-07-09T02:04:45;23.00;96.80
51855;DHT22;37895;53.240;6.572;2023-07-09T02:07:11;23.00;96.90
51855;DHT22;37895;53.240;6.572;2023-07-09T02:09:37;23.00;96.90
51855;DHT22;37895;53.240;6.572;2023-07-09T02:12:03;22.90;96.80
51855;DHT22;37895;53.240;6.572;2023-07-09T02:14:28;22.80;96.90
51855;DHT22;37895;53.240;6.572;2023-07-09T02:16:54;22.80;97.00
51855;DHT22;37895;53.240;6.572;2023-07-09T02:19:19;22.70;97.00
51855;DHT22;37895;53.240;6.572;2023-07-09T02:21:45;22.70;97.10
51855;DHT22;37895;53.240;6.572;2023-07-09T02:24:10;22.60;97.10
51855;DHT22;37895;53.240;6.572;2023-07-09T02:26:36;22.60;97.30
51855;DHT22;37895;53.240;6.572;2023-07-09T02:29:01;22.50;97.20
51855;DHT22;37895;53.240;6.572;2023-07-09T02:31:27;22.50;97.30
51855;DHT22;37895;53.240;6.572;2023-07-09T02:33:56;22.40;97.30
51855;DHT22;37895;53.240;6.572;2023-07-09T02:36:23;22.40;97.50
51855;DHT22;37895;53.240;6.572;2023-07-09T02:38:49;22.50;97.50
51855;DHT22;37895;53.240;6.572;2023-07-09T02:41:15;22.40;97.60
51855;DHT22;37895;53.240;6.572;2023-07-09T02:43:41;22.40;97.60
51855;DHT22;37895;53.240;6.572;2023-07-09T02:46:06;22.50;97.60
51855;DHT22;37895;53.240;6.572;2023-07-09T02:48:32;22.40;97.70
51855;DHT22;37895;53.240;6.572;2023-07-09T02:50:58;22.40;97.60
51855;DHT22;37895;53.240;6.572;2023-07-09T02:53:23;22.30;97.80
51855;DHT22;37895;53.240;6.572;2023-07-09T02:55:49;22.20;97.70
51855;DHT22;37895;53.240;6.572;2023-07-09T02:58:14;22.20;97.90
51855;DHT22;37895;53.240;6.572;2023-07-09T03:00:40;22.10;97.90
51855;DHT22;37895;53.240;6.572;2023-07-09T03:03:06;22.10;98.00
51855;DHT22;37895;53.240;6.572;2023-07-09T03:05:31;22.00;98.00
51855;DHT22;37895;53.240;6.572;2023-07-09T03:07:58;22.00;98.00
51855;DHT22;37895;53.240;6.572;2023-07-09T03:10:23;22.00;98.20
51855;DHT22;37895;53.240;6.572;2023-07-09T03:12:49;22.00;98.20
51855;DHT22;37895;53.240;6.572;2023-07-09T03:15:15;21.90;98.20
51855;DHT22;37895;53.240;6.572;2023-07-09T03:17:40;21.80;98.30
51855;DHT22;37895;53.240;6.572;2023-07-09T03:20:06;21.90;98.40
51855;DHT22;37895;53.240;6.572;2023-07-09T03:22:33;21.90;98.60
51855;DHT22;37895;53.240;6.572;2023-07-09T03:24:58;21.90;98.50
51855;DHT22;37895;53.240;6.572;2023-07-09T03:27:24;21.90;98.60
51855;DHT22;37895;53.240;6.572;2023-07-09T03:29:50;21.90;98.40
51855;DHT22;37895;53.240;6.572;2023-07-09T03:32:15;21.80;98.50
51855;DHT22;37895;53.240;6.572;2023-07-09T03:34:41;21.80;98.50
51855;DHT22;37895;53.240;6.572;2023-07-09T03:37:06;21.80;98.50
51855;DHT22;37895;53.240;6.572;2023-07-09T03:39:32;21.80;98.40
51855;DHT22;37895;53.240;6.572;2023-07-09T03:41:58;21.80;98.40
51855;DHT22;37895;53.240;6.572;2023-07-09T03:44:24;21.80;98.30
51855;DHT22;37895;53.240;6.572;2023-07-09T03:46:50;21.90;98.30
51855;DHT22;37895;53.240;6.572;2023-07-09T03:49:15;22.00;98.60
51855;DHT22;37895;53.240;6.572;2023-07-09T03:51:41;22.00;98.20
51855;DHT22;37895;53.240;6.572;2023-07-09T03:54:06;21.90;98.20
51855;DHT22;37895;53.240;6.572;2023-07-09T03:56:32;21.90;98.20
51855;DHT22;37895;53.240;6.572;2023-07-09T03:58:58;21.90;98.20
51855;DHT22;37895;53.240;6.572;2023-07-09T04:01:23;21.90;98.30
51855;DHT22;37895;53.240;6.572;2023-07-09T04:03:49;22.00;98.10
51855;DHT22;37895;53.240;6.572;2023-07-09T04:06:15;22.00;98.10
51855;DHT22;37895;53.240;6.572;2023-07-09T04:08:41;22.00;98.00
51855;DHT22;37895;53.240;6.572;2023-07-09T04:11:06;22.00;98.00
51855;DHT22;37895;53.240;6.572;2023-07-09T04:13:32;22.00;98.00
51855;DHT22;37895;53.240;6.572;2023-07-09T04:15:58;22.10;98.20
51855;DHT22;37895;53.240;6.572;2023-07-09T04:18:23;22.10;97.90
51855;DHT22;37895;53.240;6.572;2023-07-09T04:20:50;22.10;97.80
51855;DHT22;37895;53.240;6.572;2023-07-09T04:23:16;22.10;97.80
51855;DHT22;37895;53.240;6.572;2023-07-09T04:25:42;22.10;97.90
51855;DHT22;37895;53.240;6.572;2023-07-09T04:28:08;22.20;97.90
51855;DHT22;37895;53.240;6.572;2023-07-09T04:30:33;22.10;97.90
51855;DHT22;37895;53.240;6.572;2023-07-09T04:32:59;22.10;97.90
51855;DHT22;37895;53.240;6.572;2023-07-09T04:35:25;22.10;97.90
51855;DHT22;37895;53.240;6.572;2023-07-09T04:37:59;22.10;98.00
51855;DHT22;37895;53.240;6.572;2023-07-09T04:40:25;22.10;98.00
51855;DHT22;37895;53.240;6.572;2023-07-09T04:42:50;22.10;98.10
51855;DHT22;37895;53.240;6.572;2023-07-09T04:45:17;22.20;98.00
51855;DHT22;37895;53.240;6.572;2023-07-09T04:47:43;22.20;98.00
51855;DHT22;37895;53.240;6.572;2023-07-09T04:50:08;22.20;97.80
51855;DHT22;37895;53.240;6.572;2023-07-09T04:52:35;22.30;97.80
51855;DHT22;37895;53.240;6.572;2023-07-09T04:55:01;22.40;97.70
51855;DHT22;37895;53.240;6.572;2023-07-09T04:57:27;22.40;97.50
51855;DHT22;37895;53.240;6.572;2023-07-09T04:59:52;22.40;97.60
51855;DHT22;37895;53.240;6.572;2023-07-09T05:02:18;22.40;97.40
51855;DHT22;37895;53.240;6.572;2023-07-09T05:04:44;22.50;97.50
51855;DHT22;37895;53.240;6.572;2023-07-09T05:07:09;22.50;97.30
51855;DHT22;37895;53.240;6.572;2023-07-09T05:09:35;22.50;97.30
51855;DHT22;37895;53.240;6.572;2023-07-09T05:12:01;22.50;97.30
51855;DHT22;37895;53.240;6.572;2023-07-09T05:14:28;22.50;97.30
51855;DHT22;37895;53.240;6.572;2023-07-09T05:16:54;22.60;97.30
51855;DHT22;37895;53.240;6.572;2023-07-09T05:19:19;22.60;97.50
51855;DHT22;37895;53.240;6.572;2023-07-09T05:21:45;22.60;97.40
51855;DHT22;37895;53.240;6.572;2023-07-09T05:24:10;22.60;97.30
51855;DHT22;37895;53.240;6.572;2023-07-09T05:26:36;22.70;97.20
51855;DHT22;37895;53.240;6.572;2023-07-09T05:29:03;22.70;97.10
51855;DHT22;37895;53.240;6.572;2023-07-09T05:31:31;22.80;97.00
51855;DHT22;37895;53.240;6.572;2023-07-09T05:33:56;22.80;97.00
51855;DHT22;37895;53.240;6.572;2023-07-09T05:36:22;22.80;96.90
51855;DHT22;37895;53.240;6.572;2023-07-09T05:38:47;22.90;97.00
51855;DHT22;37895;53.240;6.572;2023-07-09T05:41:13;22.90;96.90
51855;DHT22;37895;53.240;6.572;2023-07-09T05:43:42;23.00;97.10
51855;DHT22;37895;53.240;6.572;2023-07-09T05:46:09;23.10;96.90
51855;DHT22;37895;53.240;6.572;2023-07-09T05:48:35;23.10;97.00
51855;DHT22;37895;53.240;6.572;2023-07-09T05:51:00;23.10;96.90
51855;DHT22;37895;53.240;6.572;2023-07-09T05:53:26;23.20;96.90
51855;DHT22;37895;53.240;6.572;2023-07-09T05:55:55;23.20;96.90
51855;DHT22;37895;53.240;6.572;2023-07-09T05:58:22;23.40;96.80
51855;DHT22;37895;53.240;6.572;2023-07-09T06:00:54;23.40;96.90
51855;DHT22;37895;53.240;6.572;2023-07-09T06:03:22;23.50;97.00
51855;DHT22;37895;53.240;6.572;2023-07-09T06:05:48;23.60;97.00
51855;DHT22;37895;53.240;6.572;2023-07-09T06:08:16;23.60;96.80
51855;DHT22;37895;53.240;6.572;2023-07-09T06:11:02;23.70;96.90
51855;DHT22;37895;53.240;6.572;2023-07-09T06:13:30;23.70;96.90
51855;DHT22;37895;53.240;6.572;2023-07-09T06:15:59;23.70;96.90
51855;DHT22;37895;53.240;6.572;2023-07-09T06:18:26;23.70;97.00
51855;DHT22;37895;53.240;6.572;2023-07-09T06:20:57;23.70;97.00
51855;DHT22;37895;53.240;6.572;2023-07-09T06:23:23;23.70;97.10
51855;DHT22;37895;53.240;6.572;2023-07-09T06:25:49;23.70;97.10
51855;DHT22;37895;53.240;6.572;2023-07-09T06:28:17;23.80;97.00
51855;DHT22;37895;53.240;6.572;2023-07-09T06:30:43;23.80;97.10
51855;DHT22;37895;53.240;6.572;2023-07-09T06:33:11;23.90;97.20
51855;DHT22;37895;53.240;6.572;2023-07-09T06:35:37;23.90;97.10
51855;DHT22;37895;53.240;6.572;2023-07-09T06:38:03;24.00;97.10
51855;DHT22;37895;53.240;6.572;2023-07-09T06:40:29;24.00;97.10
51855;DHT22;37895;53.240;6.572;2023-07-09T06:42:54;24.10;97.00
51855;DHT22;37895;53.240;6.572;2023-07-09T06:45:20;24.30;96.90
51855;DHT22;37895;53.240;6.572;2023-07-09T06:47:46;24.30;96.80
51855;DHT22;37895;53.240;6.572;2023-07-09T06:50:12;24.50;96.70
51855;DHT22;37895;53.240;6.572;2023-07-09T06:52:38;24.50;96.70
51855;DHT22;37895;53.240;6.572;2023-07-09T06:55:04;24.60;96.40
51855;DHT22;37895;53.240;6.572;2023-07-09T06:57:29;24.60;96.40
51855;DHT22;37895;53.240;6.572;2023-07-09T06:59:55;24.70;96.30
51855;DHT22;37895;53.240;6.572;2023-07-09T07:02:21;24.70;96.30
51855;DHT22;37895;53.240;6.572;2023-07-09T07:04:46;24.70;96.40
51855;DHT22;37895;53.240;6.572;2023-07-09T07:07:12;24.70;96.50
51855;DHT22;37895;53.240;6.572;2023-07-09T07:09:37;24.70;96.60
51855;DHT22;37895;53.240;6.572;2023-07-09T07:12:03;24.80;96.60
51855;DHT22;37895;53.240;6.572;2023-07-09T07:14:29;24.80;96.50
51855;DHT22;37895;53.240;6.572;2023-07-09T07:16:55;24.90;96.60
51855;DHT22;37895;53.240;6.572;2023-07-09T07:19:21;24.90;96.40
51855;DHT22;37895;53.240;6.572;2023-07-09T07:21:47;25.00;96.40
51855;DHT22;37895;53.240;6.572;2023-07-09T07:24:12;25.10;96.30
51855;DHT22;37895;53.240;6.572;2023-07-09T07:26:38;25.20;96.10
51855;DHT22;37895;53.240;6.572;2023-07-09T07:29:04;25.30;95.90
51855;DHT22;37895;53.240;6.572;2023-07-09T07:31:29;25.40;95.80
51855;DHT22;37895;53.240;6.572;2023-07-09T07:33:55;25.50;95.70
51855;DHT22;37895;53.240;6.572;2023-07-09T07:36:20;25.70;95.50
51855;DHT22;37895;53.240;6.572;2023-07-09T07:38:46;25.80;96.00
51855;DHT22;37895;53.240;6.572;2023-07-09T07:41:12;25.80;95.70
51855;DHT22;37895;53.240;6.572;2023-07-09T07:43:37;25.90;95.60
51855;DHT22;37895;53.240;6.572;2023-07-09T07:46:03;25.90;95.40
51855;DHT22;37895;53.240;6.572;2023-07-09T07:48:29;25.90;95.40
51855;DHT22;37895;53.240;6.572;2023-07-09T07:51:02;26.00;95.30
51855;DHT22;37895;53.240;6.572;2023-07-09T07:53:29;26.00;95.20
51855;DHT22;37895;53.240;6.572;2023-07-09T07:55:57;26.00;95.40
51855;DHT22;37895;53.240;6.572;2023-07-09T07:58:22;26.00;95.50
51855;DHT22;37895;53.240;6.572;2023-07-09T08:00:48;26.00;95.80
51855;DHT22;37895;53.240;6.572;2023-07-09T08:03:14;26.10;95.80
51855;DHT22;37895;53.240;6.572;2023-07-09T08:05:40;26.10;96.00
51855;DHT22;37895;53.240;6.572;2023-07-09T08:08:05;26.30;96.20
51855;DHT22;37895;53.240;6.572;2023-07-09T08:10:31;26.30;96.40
51855;DHT22;37895;53.240;6.572;2023-07-09T08:12:57;26.40;96.00
51855;DHT22;37895;53.240;6.572;2023-07-09T08:15:25;26.40;96.10
51855;DHT22;37895;53.240;6.572;2023-07-09T08:17:52;26.50;96.10
51855;DHT22;37895;53.240;6.572;2023-07-09T08:20:18;26.60;96.00
51855;DHT22;37895;53.240;6.572;2023-07-09T08:22:44;26.70;96.10
51855;DHT22;37895;53.240;6.572;2023-07-09T08:25:09;26.80;96.50
51855;DHT22;37895;53.240;6.572;2023-07-09T08:27:35;26.90;96.50
51855;DHT22;37895;53.240;6.572;2023-07-09T08:30:01;26.90;96.30
51855;DHT22;37895;53.240;6.572;2023-07-09T08:32:27;26.90;96.60
51855;DHT22;37895;53.240;6.572;2023-07-09T08:34:54;27.00;96.40
51855;DHT22;37895;53.240;6.572;2023-07-09T08:37:20;27.00;96.10
51855;DHT22;37895;53.240;6.572;2023-07-09T08:39:45;27.00;96.20
51855;DHT22;37895;53.240;6.572;2023-07-09T08:42:21;27.10;96.20
51855;DHT22;37895;53.240;6.572;2023-07-09T08:50:42;27.10;95.90
51855;DHT22;37895;53.240;6.572;2023-07-09T08:53:21;27.20;96.50
51855;DHT22;37895;53.240;6.572;2023-07-09T08:55:50;27.30;96.70
51855;DHT22;37895;53.240;6.572;2023-07-09T08:58:28;27.30;96.10
51855;DHT22;37895;53.240;6.572;2023-07-09T09:01:03;27.40;96.20
51855;DHT22;37895;53.240;6.572;2023-07-09T09:04:07;27.50;96.50
51855;DHT22;37895;53.240;6.572;2023-07-09T09:06:26;27.60;96.30
51855;DHT22;37895;53.240;6.572;2023-07-09T09:11:47;27.70;96.20
51855;DHT22;37895;53.240;6.572;2023-07-09T09:14:34;27.80;96.10
51855;DHT22;37895;53.240;6.572;2023-07-09T09:17:02;27.80;96.50
51855;DHT22;37895;53.240;6.572;2023-07-09T09:19:32;27.80;96.70
51855;DHT22;37895;53.240;6.572;2023-07-09T09:22:10;27.90;96.70
51855;DHT22;37895;53.240;6.572;2023-07-09T09:24:56;27.90;96.70
51855;DHT22;37895;53.240;6.572;2023-07-09T09:27:23;27.90;96.60
51855;DHT22;37895;53.240;6.572;2023-07-09T09:29:49;27.80;96.40
51855;DHT22;37895;53.240;6.572;2023-07-09T09:32:26;27.80;96.60
51855;DHT22;37895;53.240;6.572;2023-07-09T09:34:52;27.80;97.00
51855;DHT22;37895;53.240;6.572;2023-07-09T09:37:26;27.90;96.90
51855;DHT22;37895;53.240;6.572;2023-07-09T09:39:53;27.90;96.80
51855;DHT22;37895;53.240;6.572;2023-07-09T09:42:18;28.00;96.80
51855;DHT22;37895;53.240;6.572;2023-07-09T09:44:45;28.00;96.90
51855;DHT22;37895;53.240;6.572;2023-07-09T09:47:12;28.00;97.10
51855;DHT22;37895;53.240;6.572;2023-07-09T09:49:40;28.00;97.20
51855;DHT22;37895;53.240;6.572;2023-07-09T09:52:14;28.00;97.20
51855;DHT22;37895;53.240;6.572;2023-07-09T09:54:41;28.00;97.10
51855;DHT22;37895;53.240;6.572;2023-07-09T09:57:16;28.00;96.80
51855;DHT22;37895;53.240;6.572;2023-07-09T09:59:44;28.00;96.90
51855;DHT22;37895;53.240;6.572;2023-07-09T10:02:17;28.00;97.00
51855;DHT22;37895;53.240;6.572;2023-07-09T10:04:44;28.00;97.20
51855;DHT22;37895;53.240;6.572;2023-07-09T10:07:30;28.10;97.00
51855;DHT22;37895;53.240;6.572;2023-07-09T10:09:57;28.10;96.70
51855;DHT22;37895;53.240;6.572;2023-07-09T10:15:56;28.20;96.80
51855;DHT22;37895;53.240;6.572;2023-07-09T10:18:07;28.30;96.60
51855;DHT22;37895;53.240;6.572;2023-07-09T10:20:47;28.20;96.60
51855;DHT22;37895;53.240;6.572;2023-07-09T10:23:21;28.20;96.60
51855;DHT22;37895;53.240;6.572;2023-07-09T10:25:54;28.30;97.00
51855;DHT22;37895;53.240;6.572;2023-07-09T10:28:57;28.30;97.20
51855;DHT22;37895;53.240;6.572;2023-07-09T10:31:41;28.30;95.90
51855;DHT22;37895;53.240;6.572;2023-07-09T10:34:38;28.30;96.10
51855;DHT22;37895;53.240;6.572;2023-07-09T10:39:48;28.30;96.20
51855;DHT22;37895;53.240;6.572;2023-07-09T10:42:24;28.50;95.90
51855;DHT22;37895;53.240;6.572;2023-07-09T10:44:56;28.50;95.90
51855;DHT22;37895;53.240;6.572;2023-07-09T10:47:33;28.60;96.00
51855;DHT22;37895;53.240;6.572;2023-07-09T10:50:02;28.70;95.80
51855;DHT22;37895;53.240;6.572;2023-07-09T10:52:40;28.70;96.20
51855;DHT22;37895;53.240;6.572;2023-07-09T10:58:03;28.90;96.00
51855;DHT22;37895;53.240;6.572;2023-07-09T11:00:38;29.00;96.00
51855;DHT22;37895;53.240;6.572;2023-07-09T11:03:27;29.00;95.80
51855;DHT22;37895;53.240;6.572;2023-07-09T11:05:55;29.00;96.20
51855;DHT22;37895;53.240;6.572;2023-07-09T11:08:36;29.10;95.60
51855;DHT22;37895;53.240;6.572;2023-07-09T11:11:06;29.10;95.40
51855;DHT22;37895;53.240;6.572;2023-07-09T11:13:45;29.20;95.50
51855;DHT22;37895;53.240;6.572;2023-07-09T11:16:16;29.20;95.20
51855;DHT22;37895;53.240;6.572;2023-07-09T11:18:54;29.30;94.50
51855;DHT22;37895;53.240;6.572;2023-07-09T11:21:20;29.30;93.90
51855;DHT22;37895;53.240;6.572;2023-07-09T11:23:48;29.30;93.70
51855;DHT22;37895;53.240;6.572;2023-07-09T11:26:34;29.30;93.70
51855;DHT22;37895;53.240;6.572;2023-07-09T11:31:36;29.40;93.60
51855;DHT22;37895;53.240;6.572;2023-07-09T11:34:07;29.50;94.10
51855;DHT22;37895;53.240;6.572;2023-07-09T11:36:35;29.60;94.10
51855;DHT22;37895;53.240;6.572;2023-07-09T11:39:39;29.60;93.00
51855;DHT22;37895;53.240;6.572;2023-07-09T11:45:08;29.70;93.30
51855;DHT22;37895;53.240;6.572;2023-07-09T11:47:51;29.60;92.90
51855;DHT22;37895;53.240;6.572;2023-07-09T11:50:28;29.70;93.10
51855;DHT22;37895;53.240;6.572;2023-07-09T11:53:01;29.80;93.70
51855;DHT22;37895;53.240;6.572;2023-07-09T11:55:43;29.80;94.00
51855;DHT22;37895;53.240;6.572;2023-07-09T11:58:13;29.90;93.40
51855;DHT22;37895;53.240;6.572;2023-07-09T12:03:17;30.00;93.60
51855;DHT22;37895;53.240;6.572;2023-07-09T12:05:52;30.10;93.30
51855;DHT22;37895;53.240;6.572;2023-07-09T12:08:30;30.20;92.80
51855;DHT22;37895;53.240;6.572;2023-07-09T12:11:00;30.20;92.70
51855;DHT22;37895;53.240;6.572;2023-07-09T12:13:26;30.20;92.40
51855;DHT22;37895;53.240;6.572;2023-07-09T12:15:52;30.10;92.30
51855;DHT22;37895;53.240;6.572;2023-07-09T12:18:18;30.20;91.50
51855;DHT22;37895;53.240;6.572;2023-07-09T12:20:49;30.20;90.90
51855;DHT22;37895;53.240;6.572;2023-07-09T12:23:34;30.30;91.00
51855;DHT22;37895;53.240;6.572;2023-07-09T12:26:02;30.40;90.40
51855;DHT22;37895;53.240;6.572;2023-07-09T12:28:30;30.40;90.20
51855;DHT22;37895;53.240;6.572;2023-07-09T12:30:55;30.30;89.70
51855;DHT22;37895;53.240;6.572;2023-07-09T12:33:26;30.40;90.30
51855;DHT22;37895;53.240;6.572;2023-07-09T12:36:05;30.40;89.50
51855;DHT22;37895;53.240;6.572;2023-07-09T12:38:42;30.40;90.10
51855;DHT22;37895;53.240;6.572;2023-07-09T12:41:23;30.40;89.60
51855;DHT22;37895;53.240;6.572;2023-07-09T12:43:52;30.40;89.20
51855;DHT22;37895;53.240;6.572;2023-07-09T12:46:19;30.40;89.20
51855;DHT22;37895;53.240;6.572;2023-07-09T12:48:46;30.30;89.20
51855;DHT22;37895;53.240;6.572;2023-07-09T12:51:20;30.40;90.30
51855;DHT22;37895;53.240;6.572;2023-07-09T12:53:46;30.50;90.40
51855;DHT22;37895;53.240;6.572;2023-07-09T12:56:16;30.70;90.00
51855;DHT22;37895;53.240;6.572;2023-07-09T12:58:42;30.80;90.10
51855;DHT22;37895;53.240;6.572;2023-07-09T13:01:17;30.90;90.30
51855;DHT22;37895;53.240;6.572;2023-07-09T13:03:54;30.90;89.90
51855;DHT22;37895;53.240;6.572;2023-07-09T13:06:34;30.90;88.70
51855;DHT22;37895;53.240;6.572;2023-07-09T13:09:01;30.90;90.20
51855;DHT22;37895;53.240;6.572;2023-07-09T13:11:35;30.90;90.40
51855;DHT22;37895;53.240;6.572;2023-07-09T13:14:11;31.00;90.50
51855;DHT22;37895;53.240;6.572;2023-07-09T13:16:40;31.10;90.60
51855;DHT22;37895;53.240;6.572;2023-07-09T13:19:06;31.20;90.70
51855;DHT22;37895;53.240;6.572;2023-07-09T13:21:31;31.20;90.90
51855;DHT22;37895;53.240;6.572;2023-07-09T13:23:58;31.20;90.70
51855;DHT22;37895;53.240;6.572;2023-07-09T13:26:24;31.20;90.40
51855;DHT22;37895;53.240;6.572;2023-07-09T13:28:50;31.20;90.20
51855;DHT22;37895;53.240;6.572;2023-07-09T13:31:20;31.10;90.50
51855;DHT22;37895;53.240;6.572;2023-07-09T13:33:58;31.20;90.90
51855;DHT22;37895;53.240;6.572;2023-07-09T13:36:24;31.30;91.30
51855;DHT22;37895;53.240;6.572;2023-07-09T13:38:50;31.40;91.00
51855;DHT22;37895;53.240;6.572;2023-07-09T13:41:19;31.50;90.60
51855;DHT22;37895;53.240;6.572;2023-07-09T13:43:48;31.60;90.80
51855;DHT22;37895;53.240;6.572;2023-07-09T13:46:14;31.80;90.40
51855;DHT22;37895;53.240;6.572;2023-07-09T13:48:41;31.90;90.00
51855;DHT22;37895;53.240;6.572;2023-07-09T13:51:15;31.80;89.50
51855;DHT22;37895;53.240;6.572;2023-07-09T13:53:41;31.90;90.00
51855;DHT22;37895;53.240;6.572;2023-07-09T13:56:07;31.80;89.80
51855;DHT22;37895;53.240;6.572;2023-07-09T13:58:32;31.80;89.90
51855;DHT22;37895;53.240;6.572;2023-07-09T14:01:01;31.80;89.70
51855;DHT22;37895;53.240;6.572;2023-07-09T14:03:34;31.80;90.00
51855;DHT22;37895;53.240;6.572;2023-07-09T14:06:01;31.80;90.40
51855;DHT22;37895;53.240;6.572;2023-07-09T14:08:27;31.90;90.50
51855;DHT22;37895;53.240;6.572;2023-07-09T14:10:52;31.80;90.30
51855;DHT22;37895;53.240;6.572;2023-07-09T14:13:21;31.80;90.10
51855;DHT22;37895;53.240;6.572;2023-07-09T14:15:47;31.80;90.10
51855;DHT22;37895;53.240;6.572;2023-07-09T14:18:21;31.70;90.00
51855;DHT22;37895;53.240;6.572;2023-07-09T14:20:47;31.80;90.00
51855;DHT22;37895;53.240;6.572;2023-07-09T14:23:16;31.80;90.00
51855;DHT22;37895;53.240;6.572;2023-07-09T14:25:43;31.80;89.80
51855;DHT22;37895;53.240;6.572;2023-07-09T14:28:12;31.80;89.90
51855;DHT22;37895;53.240;6.572;2023-07-09T14:30:38;31.70;88.90
51855;DHT22;37895;53.240;6.572;2023-07-09T14:33:07;31.50;89.80
51855;DHT22;37895;53.240;6.572;2023-07-09T14:35:34;31.50;90.00
51855;DHT22;37895;53.240;6.572;2023-07-09T14:38:01;31.30;90.00
51855;DHT22;37895;53.240;6.572;2023-07-09T14:40:29;31.30;90.20
51855;DHT22;37895;53.240;6.572;2023-07-09T14:42:55;31.20;90.70
51855;DHT22;37895;53.240;6.572;2023-07-09T14:45:23;31.00;90.90
51855;DHT22;37895;53.240;6.572;2023-07-09T14:47:51;30.50;90.90
51855;DHT22;37895;53.240;6.572;2023-07-09T14:50:18;30.10;91.20
51855;DHT22;37895;53.240;6.572;2023-07-09T14:52:45;29.70;91.80
51855;DHT22;37895;53.240;6.572;2023-07-09T14:55:22;29.30;92.30
51855;DHT22;37895;53.240;6.572;2023-07-09T14:57:50;29.00;92.50
51855;DHT22;37895;53.240;6.572;2023-07-09T15:00:20;28.70;92.80
51855;DHT22;37895;53.240;6.572;2023-07-09T15:02:49;28.50;93.50
51855;DHT22;37895;53.240;6.572;2023-07-09T15:05:18;28.30;94.10
51855;DHT22;37895;53.240;6.572;2023-07-09T15:07:45;28.20;94.20
51855;DHT22;37895;53.240;6.572;2023-07-09T15:10:37;28.00;94.00
51855;DHT22;37895;53.240;6.572;2023-07-09T15:13:03;27.80;94.10
51855;DHT22;37895;53.240;6.572;2023-07-09T15:15:31;27.70;94.30
51855;DHT22;37895;53.240;6.572;2023-07-09T15:17:59;27.60;94.50
51855;DHT22;37895;53.240;6.572;2023-07-09T15:20:29;27.50;94.80
51855;DHT22;37895;53.240;6.572;2023-07-09T15:22:57;27.40;94.80
51855;DHT22;37895;53.240;6.572;2023-07-09T15:25:26;27.30;94.60
51855;DHT22;37895;53.240;6.572;2023-07-09T15:27:52;27.10;93.80
51855;DHT22;37895;53.240;6.572;2023-07-09T15:30:35;27.00;93.60
51855;DHT22;37895;53.240;6.572;2023-07-09T15:33:03;26.80;93.80
51855;DHT22;37895;53.240;6.572;2023-07-09T15:35:33;26.70;93.90
51855;DHT22;37895;53.240;6.572;2023-07-09T15:38:02;26.60;93.90
51855;DHT22;37895;53.240;6.572;2023-07-09T15:40:29;26.60;93.50
51855;DHT22;37895;53.240;6.572;2023-07-09T15:42:58;26.40;93.20
51855;DHT22;37895;53.240;6.572;2023-07-09T15:45:24;26.30;93.10
51855;DHT22;37895;53.240;6.572;2023-07-09T15:47:51;26.20;93.10
51855;DHT22;37895;53.240;6.572;2023-07-09T15:50:23;26.10;92.80
51855;DHT22;37895;53.240;6.572;2023-07-09T15:52:49;25.90;93.30
51855;DHT22;37895;53.240;6.572;2023-07-09T15:55:23;25.70;94.10
51855;DHT22;37895;53.240;6.572;2023-07-09T15:57:50;25.70;95.10
51855;DHT22;37895;53.240;6.572;2023-07-09T16:00:23;25.60;95.80
51855;DHT22;37895;53.240;6.572;2023-07-09T16:02:50;25.50;97.20
51855;DHT22;37895;53.240;6.572;2023-07-09T16:05:30;25.50;98.00
51855;DHT22;37895;53.240;6.572;2023-07-09T16:07:58;25.40;98.60
51855;DHT22;37895;53.240;6.572;2023-07-09T16:10:26;25.30;98.50
51855;DHT22;37895;53.240;6.572;2023-07-09T16:12:54;25.10;99.70
51855;DHT22;37895;53.240;6.572;2023-07-09T16:15:21;25.00;99.90
51855;DHT22;37895;53.240;6.572;2023-07-09T16:17:49;24.80;99.90